sensor_id;sensor_type;location;lat;lon;timestamp;P1;durP1;ratioP1;P2;durP2;ratioP2
57389;SDS011;43217;52.694;6.214;2022-12-11T00:01:34;103.82;;;35.95;;
57389;SDS011;43217;52.694;6.214;2022-12-11T00:04:00;135.95;;;39.35;;
57389;SDS011;43217;52.694;6.214;2022-12-11T00:06:26;108.78;;;34.67;;
57389;SDS011;43217;52.694;6.214;2022-12-11T00:08:52;124.80;;;37.03;;
57389;SDS011;43217;52.694;6.214;2022-12-11T00:11:18;110.37;;;35.37;;
57389;SDS011;43217;52.694;6.214;2022-12-11T00:13:45;115.55;;;36.10;;
57389;SDS011;43217;52.694;6.214;2022-12-11T00:16:10;101.38;;;34.90;;
57389;SDS011;43217;52.694;6.214;2022-12-11T00:18:36;97.43;;;33.80;;
57389;SDS011;43217;52.694;6.214;2022-12-11T00:21:04;123.43;;;37.03;;
57389;SDS011;43217;52.694;6.214;2022-12-11T00:23:31;126.93;;;37.63;;
57389;SDS011;43217;52.694;6.214;2022-12-11T00:25:57;120.90;;;36.00;;
57389;SDS011;43217;52.694;6.214;2022-12-11T00:28:23;112.80;;;37.53;;
57389;SDS011;43217;52.694;6.214;2022-12-11T00:30:49;116.55;;;38.17;;
57389;SDS011;43217;52.694;6.214;2022-12-11T00:33:14;125.97;;;37.63;;
57389;SDS011;43217;52.694;6.214;2022-12-11T00:35:43;131.90;;;38.47;;
57389;SDS011;43217;52.694;6.214;2022-12-11T00:38:14;117.70;;;38.28;;
57389;SDS011;43217;52.694;6.214;2022-12-11T00:40:42;112.93;;;38.03;;
57389;SDS011;43217;52.694;6.214;2022-12-11T00:43:08;113.55;;;37.65;;
57389;SDS011;43217;52.694;6.214;2022-12-11T00:45:35;123.72;;;39.45;;
57389;SDS011;43217;52.694;6.214;2022-12-11T00:48:08;112.78;;;38.10;;
57389;SDS011;43217;52.694;6.214;2022-12-11T00:50:34;121.13;;;38.50;;
57389;SDS011;43217;52.694;6.214;2022-12-11T00:53:02;129.27;;;39.15;;
57389;SDS011;43217;52.694;6.214;2022-12-11T00:57:54;130.95;;;39.75;;
57389;SDS011;43217;52.694;6.214;2022-12-11T01:00:21;120.47;;;39.38;;
57389;SDS011;43217;52.694;6.214;2022-12-11T01:02:47;109.78;;;37.88;;
57389;SDS011;43217;52.694;6.214;2022-12-11T01:05:13;112.43;;;37.13;;
57389;SDS011;43217;52.694;6.214;2022-12-11T01:07:39;131.10;;;38.75;;
57389;SDS011;43217;52.694;6.214;2022-12-11T01:10:04;132.32;;;40.05;;
57389;SDS011;43217;52.694;6.214;2022-12-11T01:13:10;114.35;;;37.15;;
57389;SDS011;43217;52.694;6.214;2022-12-11T01:15:39;129.10;;;39.67;;
57389;SDS011;43217;52.694;6.214;2022-12-11T01:18:08;124.90;;;38.15;;
57389;SDS011;43217;52.694;6.214;2022-12-11T01:20:38;118.70;;;36.70;;
57389;SDS011;43217;52.694;6.214;2022-12-11T01:25:32;125.85;;;38.38;;
57389;SDS011;43217;52.694;6.214;2022-12-11T01:27:59;126.68;;;39.97;;
57389;SDS011;43217;52.694;6.214;2022-12-11T01:30:25;128.00;;;39.13;;
57389;SDS011;43217;52.694;6.214;2022-12-11T01:32:51;133.38;;;39.40;;
57389;SDS011;43217;52.694;6.214;2022-12-11T01:35:17;125.53;;;38.38;;
57389;SDS011;43217;52.694;6.214;2022-12-11T01:37:43;128.02;;;39.00;;
57389;SDS011;43217;52.694;6.214;2022-12-11T01:40:11;120.30;;;38.67;;
57389;SDS011;43217;52.694;6.214;2022-12-11T01:42:39;129.13;;;41.20;;
57389;SDS011;43217;52.694;6.214;2022-12-11T01:45:15;124.80;;;38.30;;
57389;SDS011;43217;52.694;6.214;2022-12-11T01:47:51;120.75;;;39.47;;
57389;SDS011;43217;52.694;6.214;2022-12-11T01:50:49;133.95;;;39.03;;
57389;SDS011;43217;52.694;6.214;2022-12-11T01:53:24;126.47;;;39.72;;
57389;SDS011;43217;52.694;6.214;2022-12-11T01:56:02;125.43;;;39.40;;
57389;SDS011;43217;52.694;6.214;2022-12-11T01:58:30;122.35;;;39.05;;
57389;SDS011;43217;52.694;6.214;2022-12-11T02:00:59;122.80;;;40.00;;
57389;SDS011;43217;52.694;6.214;2022-12-11T02:03:26;111.35;;;37.83;;
57389;SDS011;43217;52.694;6.214;2022-12-11T02:05:52;124.97;;;37.88;;
57389;SDS011;43217;52.694;6.214;2022-12-11T02:08:18;128.93;;;38.00;;
57389;SDS011;43217;52.694;6.214;2022-12-11T02:10:48;122.85;;;39.22;;
57389;SDS011;43217;52.694;6.214;2022-12-11T02:13:33;126.13;;;39.08;;
57389;SDS011;43217;52.694;6.214;2022-12-11T02:16:34;125.18;;;39.35;;
57389;SDS011;43217;52.694;6.214;2022-12-11T02:19:07;137.30;;;38.72;;
57389;SDS011;43217;52.694;6.214;2022-12-11T02:21:47;132.18;;;41.42;;
57389;SDS011;43217;52.694;6.214;2022-12-11T02:27:02;122.20;;;40.95;;
57389;SDS011;43217;52.694;6.214;2022-12-11T02:29:34;126.65;;;40.45;;
57389;SDS011;43217;52.694;6.214;2022-12-11T02:32:04;124.93;;;39.33;;
57389;SDS011;43217;52.694;6.214;2022-12-11T02:35:06;122.93;;;38.97;;
57389;SDS011;43217;52.694;6.214;2022-12-11T02:37:34;138.63;;;42.35;;
57389;SDS011;43217;52.694;6.214;2022-12-11T02:40:02;115.38;;;38.65;;
57389;SDS011;43217;52.694;6.214;2022-12-11T02:42:31;118.60;;;40.38;;
57389;SDS011;43217;52.694;6.214;2022-12-11T02:44:58;125.70;;;40.90;;
57389;SDS011;43217;52.694;6.214;2022-12-11T02:47:25;128.07;;;41.10;;
57389;SDS011;43217;52.694;6.214;2022-12-11T02:49:53;117.65;;;39.03;;
57389;SDS011;43217;52.694;6.214;2022-12-11T02:52:23;131.07;;;41.45;;
57389;SDS011;43217;52.694;6.214;2022-12-11T02:54:51;115.32;;;39.28;;
57389;SDS011;43217;52.694;6.214;2022-12-11T02:57:27;120.75;;;39.38;;
57389;SDS011;43217;52.694;6.214;2022-12-11T02:59:59;123.30;;;39.25;;
57389;SDS011;43217;52.694;6.214;2022-12-11T03:02:25;123.15;;;39.20;;
57389;SDS011;43217;52.694;6.214;2022-12-11T03:04:50;121.68;;;39.80;;
57389;SDS011;43217;52.694;6.214;2022-12-11T03:07:18;129.93;;;39.60;;
57389;SDS011;43217;52.694;6.214;2022-12-11T03:09:47;110.13;;;36.70;;
57389;SDS011;43217;52.694;6.214;2022-12-11T03:12:15;124.20;;;38.10;;
57389;SDS011;43217;52.694;6.214;2022-12-11T03:14:49;126.35;;;38.50;;
57389;SDS011;43217;52.694;6.214;2022-12-11T03:17:16;121.65;;;39.85;;
57389;SDS011;43217;52.694;6.214;2022-12-11T03:22:38;116.00;;;37.75;;
57389;SDS011;43217;52.694;6.214;2022-12-11T03:25:10;110.40;;;36.92;;
57389;SDS011;43217;52.694;6.214;2022-12-11T03:27:43;119.50;;;38.35;;
57389;SDS011;43217;52.694;6.214;2022-12-11T03:30:18;106.53;;;36.08;;
57389;SDS011;43217;52.694;6.214;2022-12-11T03:33:08;116.03;;;37.30;;
57389;SDS011;43217;52.694;6.214;2022-12-11T03:35:36;100.80;;;35.25;;
57389;SDS011;43217;52.694;6.214;2022-12-11T03:38:07;106.97;;;37.08;;
57389;SDS011;43217;52.694;6.214;2022-12-11T03:40:40;107.20;;;36.47;;
57389;SDS011;43217;52.694;6.214;2022-12-11T03:43:09;102.65;;;35.72;;
57389;SDS011;43217;52.694;6.214;2022-12-11T03:45:36;103.97;;;35.78;;
57389;SDS011;43217;52.694;6.214;2022-12-11T03:50:31;104.32;;;35.47;;
57389;SDS011;43217;52.694;6.214;2022-12-11T03:52:58;110.65;;;35.45;;
57389;SDS011;43217;52.694;6.214;2022-12-11T03:55:25;87.93;;;33.95;;
57389;SDS011;43217;52.694;6.214;2022-12-11T04:00:19;99.15;;;33.30;;
57389;SDS011;43217;52.694;6.214;2022-12-11T04:02:46;94.03;;;32.97;;
57389;SDS011;43217;52.694;6.214;2022-12-11T04:05:34;102.88;;;33.90;;
57389;SDS011;43217;52.694;6.214;2022-12-11T04:08:00;102.78;;;34.90;;
57389;SDS011;43217;52.694;6.214;2022-12-11T04:10:26;102.68;;;36.03;;
57389;SDS011;43217;52.694;6.214;2022-12-11T04:12:51;89.90;;;32.13;;
57389;SDS011;43217;52.694;6.214;2022-12-11T04:15:17;89.38;;;32.63;;
57389;SDS011;43217;52.694;6.214;2022-12-11T04:17:42;89.68;;;32.72;;
57389;SDS011;43217;52.694;6.214;2022-12-11T04:20:27;100.50;;;34.40;;
57389;SDS011;43217;52.694;6.214;2022-12-11T04:23:15;97.70;;;34.45;;
57389;SDS011;43217;52.694;6.214;2022-12-11T04:26:08;92.30;;;33.17;;
57389;SDS011;43217;52.694;6.214;2022-12-11T04:28:39;91.45;;;32.53;;
57389;SDS011;43217;52.694;6.214;2022-12-11T04:31:04;88.25;;;33.55;;
57389;SDS011;43217;52.694;6.214;2022-12-11T04:33:30;84.35;;;31.40;;
57389;SDS011;43217;52.694;6.214;2022-12-11T04:35:57;96.25;;;32.03;;
57389;SDS011;43217;52.694;6.214;2022-12-11T04:38:23;89.43;;;32.42;;
57389;SDS011;43217;52.694;6.214;2022-12-11T04:40:49;92.82;;;32.75;;
57389;SDS011;43217;52.694;6.214;2022-12-11T04:43:29;102.43;;;32.63;;
57389;SDS011;43217;52.694;6.214;2022-12-11T04:46:04;100.88;;;33.67;;
57389;SDS011;43217;52.694;6.214;2022-12-11T04:48:38;101.28;;;34.60;;
57389;SDS011;43217;52.694;6.214;2022-12-11T04:51:05;87.53;;;31.77;;
57389;SDS011;43217;52.694;6.214;2022-12-11T04:53:31;98.05;;;33.35;;
57389;SDS011;43217;52.694;6.214;2022-12-11T04:55:58;88.85;;;31.55;;
57389;SDS011;43217;52.694;6.214;2022-12-11T04:58:24;90.25;;;32.53;;
57389;SDS011;43217;52.694;6.214;2022-12-11T05:00:50;96.07;;;32.28;;
57389;SDS011;43217;52.694;6.214;2022-12-11T05:03:16;92.07;;;32.67;;
57389;SDS011;43217;52.694;6.214;2022-12-11T05:05:49;83.15;;;32.17;;
57389;SDS011;43217;52.694;6.214;2022-12-11T05:08:18;103.07;;;33.58;;
57389;SDS011;43217;52.694;6.214;2022-12-11T05:10:53;90.30;;;32.85;;
57389;SDS011;43217;52.694;6.214;2022-12-11T05:13:23;92.97;;;32.28;;
57389;SDS011;43217;52.694;6.214;2022-12-11T05:15:49;94.90;;;33.80;;
57389;SDS011;43217;52.694;6.214;2022-12-11T05:18:15;98.90;;;34.00;;
57389;SDS011;43217;52.694;6.214;2022-12-11T05:20:40;98.97;;;33.47;;
57389;SDS011;43217;52.694;6.214;2022-12-11T05:23:06;91.88;;;33.13;;
57389;SDS011;43217;52.694;6.214;2022-12-11T05:25:32;87.82;;;32.17;;
57389;SDS011;43217;52.694;6.214;2022-12-11T05:27:57;95.25;;;33.72;;
57389;SDS011;43217;52.694;6.214;2022-12-11T05:30:23;82.50;;;30.42;;
57389;SDS011;43217;52.694;6.214;2022-12-11T05:32:48;103.10;;;32.08;;
57389;SDS011;43217;52.694;6.214;2022-12-11T05:35:14;101.93;;;35.08;;
57389;SDS011;43217;52.694;6.214;2022-12-11T05:37:40;90.82;;;30.45;;
57389;SDS011;43217;52.694;6.214;2022-12-11T05:40:06;103.60;;;33.60;;
57389;SDS011;43217;52.694;6.214;2022-12-11T05:42:32;84.25;;;32.20;;
57389;SDS011;43217;52.694;6.214;2022-12-11T05:44:58;95.68;;;32.50;;
57389;SDS011;43217;52.694;6.214;2022-12-11T05:47:23;85.18;;;31.80;;
57389;SDS011;43217;52.694;6.214;2022-12-11T05:49:50;87.38;;;31.15;;
57389;SDS011;43217;52.694;6.214;2022-12-11T05:52:15;74.85;;;30.83;;
57389;SDS011;43217;52.694;6.214;2022-12-11T05:54:41;93.07;;;32.53;;
57389;SDS011;43217;52.694;6.214;2022-12-11T05:57:07;96.65;;;33.28;;
57389;SDS011;43217;52.694;6.214;2022-12-11T05:59:33;93.43;;;32.28;;
57389;SDS011;43217;52.694;6.214;2022-12-11T06:01:59;88.38;;;31.83;;
57389;SDS011;43217;52.694;6.214;2022-12-11T06:04:25;95.97;;;33.35;;
57389;SDS011;43217;52.694;6.214;2022-12-11T06:06:53;98.80;;;34.08;;
57389;SDS011;43217;52.694;6.214;2022-12-11T06:09:19;105.70;;;34.17;;
57389;SDS011;43217;52.694;6.214;2022-12-11T06:11:44;92.45;;;33.42;;
57389;SDS011;43217;52.694;6.214;2022-12-11T06:14:10;98.25;;;34.90;;
57389;SDS011;43217;52.694;6.214;2022-12-11T06:16:36;100.22;;;33.33;;
57389;SDS011;43217;52.694;6.214;2022-12-11T06:19:02;97.28;;;34.90;;
57389;SDS011;43217;52.694;6.214;2022-12-11T06:21:29;90.20;;;32.53;;
57389;SDS011;43217;52.694;6.214;2022-12-11T06:23:57;102.55;;;34.22;;
57389;SDS011;43217;52.694;6.214;2022-12-11T06:26:24;104.22;;;41.63;;
57389;SDS011;43217;52.694;6.214;2022-12-11T06:28:50;106.18;;;38.58;;
57389;SDS011;43217;52.694;6.214;2022-12-11T06:31:16;98.22;;;36.90;;
57389;SDS011;43217;52.694;6.214;2022-12-11T06:33:43;101.28;;;39.63;;
57389;SDS011;43217;52.694;6.214;2022-12-11T06:36:10;92.30;;;35.13;;
57389;SDS011;43217;52.694;6.214;2022-12-11T06:38:38;100.22;;;38.08;;
57389;SDS011;43217;52.694;6.214;2022-12-11T06:41:04;100.00;;;35.95;;
57389;SDS011;43217;52.694;6.214;2022-12-11T06:43:31;192.83;;;104.10;;
57389;SDS011;43217;52.694;6.214;2022-12-11T06:45:58;142.00;;;68.18;;
57389;SDS011;43217;52.694;6.214;2022-12-11T06:48:24;111.72;;;43.00;;
57389;SDS011;43217;52.694;6.214;2022-12-11T06:50:50;109.78;;;42.05;;
57389;SDS011;43217;52.694;6.214;2022-12-11T06:53:15;122.93;;;54.58;;
57389;SDS011;43217;52.694;6.214;2022-12-11T06:55:41;120.65;;;47.38;;
57389;SDS011;43217;52.694;6.214;2022-12-11T06:58:08;105.97;;;41.92;;
57389;SDS011;43217;52.694;6.214;2022-12-11T07:00:35;114.18;;;45.22;;
57389;SDS011;43217;52.694;6.214;2022-12-11T07:03:01;115.53;;;44.67;;
57389;SDS011;43217;52.694;6.214;2022-12-11T07:05:26;124.20;;;42.78;;
57389;SDS011;43217;52.694;6.214;2022-12-11T07:07:53;110.55;;;38.55;;
57389;SDS011;43217;52.694;6.214;2022-12-11T07:10:19;103.82;;;38.28;;
57389;SDS011;43217;52.694;6.214;2022-12-11T07:12:45;99.20;;;36.63;;
57389;SDS011;43217;52.694;6.214;2022-12-11T07:15:10;110.82;;;38.53;;
57389;SDS011;43217;52.694;6.214;2022-12-11T07:17:36;109.07;;;37.78;;
57389;SDS011;43217;52.694;6.214;2022-12-11T07:20:02;94.85;;;35.38;;
57389;SDS011;43217;52.694;6.214;2022-12-11T07:22:28;94.63;;;35.30;;
57389;SDS011;43217;52.694;6.214;2022-12-11T07:24:53;98.45;;;36.65;;
57389;SDS011;43217;52.694;6.214;2022-12-11T07:27:19;106.43;;;35.95;;
57389;SDS011;43217;52.694;6.214;2022-12-11T07:29:45;111.47;;;37.80;;
57389;SDS011;43217;52.694;6.214;2022-12-11T07:32:10;95.03;;;36.80;;
57389;SDS011;43217;52.694;6.214;2022-12-11T07:34:36;101.82;;;38.40;;
57389;SDS011;43217;52.694;6.214;2022-12-11T07:37:02;106.95;;;36.10;;
57389;SDS011;43217;52.694;6.214;2022-12-11T07:39:27;112.30;;;37.33;;
57389;SDS011;43217;52.694;6.214;2022-12-11T07:41:53;96.88;;;34.97;;
57389;SDS011;43217;52.694;6.214;2022-12-11T07:44:19;110.28;;;37.13;;
57389;SDS011;43217;52.694;6.214;2022-12-11T07:46:45;103.35;;;35.30;;
57389;SDS011;43217;52.694;6.214;2022-12-11T07:49:10;94.63;;;33.65;;
57389;SDS011;43217;52.694;6.214;2022-12-11T07:51:36;95.20;;;34.95;;
57389;SDS011;43217;52.694;6.214;2022-12-11T07:54:12;100.80;;;37.13;;
57389;SDS011;43217;52.694;6.214;2022-12-11T07:56:41;103.80;;;44.75;;
57389;SDS011;43217;52.694;6.214;2022-12-11T07:59:10;96.80;;;37.78;;
57389;SDS011;43217;52.694;6.214;2022-12-11T08:01:37;99.70;;;35.72;;
57389;SDS011;43217;52.694;6.214;2022-12-11T08:04:05;103.72;;;40.25;;
57389;SDS011;43217;52.694;6.214;2022-12-11T08:06:33;103.00;;;38.17;;
57389;SDS011;43217;52.694;6.214;2022-12-11T08:09:02;100.80;;;36.17;;
57389;SDS011;43217;52.694;6.214;2022-12-11T08:11:29;92.00;;;33.75;;
57389;SDS011;43217;52.694;6.214;2022-12-11T08:13:55;97.00;;;35.67;;
57389;SDS011;43217;52.694;6.214;2022-12-11T08:16:23;100.55;;;39.05;;
57389;SDS011;43217;52.694;6.214;2022-12-11T08:18:49;93.35;;;35.85;;
57389;SDS011;43217;52.694;6.214;2022-12-11T08:21:33;102.03;;;39.50;;
57389;SDS011;43217;52.694;6.214;2022-12-11T08:23:59;100.53;;;36.33;;
57389;SDS011;43217;52.694;6.214;2022-12-11T08:26:26;94.35;;;36.78;;
57389;SDS011;43217;52.694;6.214;2022-12-11T08:28:53;97.97;;;36.20;;
57389;SDS011;43217;52.694;6.214;2022-12-11T08:31:19;89.07;;;34.80;;
57389;SDS011;43217;52.694;6.214;2022-12-11T08:33:45;94.00;;;35.38;;
57389;SDS011;43217;52.694;6.214;2022-12-11T08:36:13;90.65;;;34.38;;
57389;SDS011;43217;52.694;6.214;2022-12-11T08:38:40;89.57;;;34.13;;
57389;SDS011;43217;52.694;6.214;2022-12-11T08:41:16;98.95;;;35.40;;
57389;SDS011;43217;52.694;6.214;2022-12-11T08:43:46;98.30;;;34.70;;
57389;SDS011;43217;52.694;6.214;2022-12-11T08:46:12;80.13;;;32.15;;
57389;SDS011;43217;52.694;6.214;2022-12-11T08:48:39;92.03;;;37.13;;
57389;SDS011;43217;52.694;6.214;2022-12-11T08:51:06;80.97;;;33.38;;
57389;SDS011;43217;52.694;6.214;2022-12-11T08:53:35;98.45;;;37.13;;
57389;SDS011;43217;52.694;6.214;2022-12-11T08:56:05;87.68;;;35.30;;
57389;SDS011;43217;52.694;6.214;2022-12-11T08:58:36;81.97;;;34.25;;
57389;SDS011;43217;52.694;6.214;2022-12-11T09:01:09;85.97;;;34.30;;
57389;SDS011;43217;52.694;6.214;2022-12-11T09:03:37;84.45;;;36.20;;
57389;SDS011;43217;52.694;6.214;2022-12-11T09:06:07;83.45;;;35.63;;
57389;SDS011;43217;52.694;6.214;2022-12-11T09:08:39;95.20;;;42.13;;
57389;SDS011;43217;52.694;6.214;2022-12-11T09:11:08;101.53;;;41.47;;
57389;SDS011;43217;52.694;6.214;2022-12-11T09:13:36;88.82;;;34.60;;
57389;SDS011;43217;52.694;6.214;2022-12-11T09:16:03;87.00;;;34.85;;
57389;SDS011;43217;52.694;6.214;2022-12-11T09:18:29;90.50;;;37.03;;
57389;SDS011;43217;52.694;6.214;2022-12-11T09:21:02;83.25;;;35.03;;
57389;SDS011;43217;52.694;6.214;2022-12-11T09:23:30;110.22;;;46.80;;
57389;SDS011;43217;52.694;6.214;2022-12-11T09:25:55;114.55;;;47.03;;
57389;SDS011;43217;52.694;6.214;2022-12-11T09:28:21;94.45;;;43.38;;
57389;SDS011;43217;52.694;6.214;2022-12-11T09:30:48;84.78;;;36.60;;
57389;SDS011;43217;52.694;6.214;2022-12-11T09:33:14;89.43;;;36.95;;
57389;SDS011;43217;52.694;6.214;2022-12-11T09:35:40;78.38;;;34.65;;
57389;SDS011;43217;52.694;6.214;2022-12-11T09:38:05;90.63;;;36.40;;
57389;SDS011;43217;52.694;6.214;2022-12-11T09:40:31;89.25;;;40.33;;
57389;SDS011;43217;52.694;6.214;2022-12-11T09:42:59;87.30;;;38.25;;
57389;SDS011;43217;52.694;6.214;2022-12-11T09:45:30;89.97;;;36.40;;
57389;SDS011;43217;52.694;6.214;2022-12-11T09:47:57;177.57;;;92.95;;
57389;SDS011;43217;52.694;6.214;2022-12-11T09:50:25;116.78;;;61.95;;
57389;SDS011;43217;52.694;6.214;2022-12-11T09:55:47;100.57;;;45.17;;
57389;SDS011;43217;52.694;6.214;2022-12-11T09:58:21;94.30;;;40.03;;
57389;SDS011;43217;52.694;6.214;2022-12-11T10:01:17;89.32;;;37.30;;
57389;SDS011;43217;52.694;6.214;2022-12-11T10:07:12;86.55;;;34.63;;
57389;SDS011;43217;52.694;6.214;2022-12-11T10:15:25;88.88;;;37.90;;
57389;SDS011;43217;52.694;6.214;2022-12-11T10:18:11;82.35;;;33.28;;
57389;SDS011;43217;52.694;6.214;2022-12-11T10:20:40;72.57;;;30.38;;
57389;SDS011;43217;52.694;6.214;2022-12-11T10:23:08;86.68;;;34.70;;
57389;SDS011;43217;52.694;6.214;2022-12-11T10:25:40;80.00;;;33.63;;
57389;SDS011;43217;52.694;6.214;2022-12-11T10:28:11;83.15;;;41.50;;
57389;SDS011;43217;52.694;6.214;2022-12-11T10:34:02;93.88;;;41.05;;
57389;SDS011;43217;52.694;6.214;2022-12-11T10:36:34;88.20;;;39.58;;
57389;SDS011;43217;52.694;6.214;2022-12-11T10:39:09;90.97;;;45.17;;
57389;SDS011;43217;52.694;6.214;2022-12-11T10:41:41;121.03;;;67.82;;
57389;SDS011;43217;52.694;6.214;2022-12-11T10:44:15;101.53;;;57.28;;
57389;SDS011;43217;52.694;6.214;2022-12-11T10:46:44;103.35;;;52.97;;
57389;SDS011;43217;52.694;6.214;2022-12-11T10:57:35;86.55;;;38.22;;
57389;SDS011;43217;52.694;6.214;2022-12-11T11:00:07;85.40;;;39.10;;
57389;SDS011;43217;52.694;6.214;2022-12-11T11:02:57;78.00;;;35.38;;
57389;SDS011;43217;52.694;6.214;2022-12-11T11:05:33;78.35;;;38.25;;
57389;SDS011;43217;52.694;6.214;2022-12-11T11:08:16;79.10;;;37.63;;
57389;SDS011;43217;52.694;6.214;2022-12-11T11:10:49;75.47;;;36.08;;
57389;SDS011;43217;52.694;6.214;2022-12-11T11:13:25;77.50;;;36.33;;
57389;SDS011;43217;52.694;6.214;2022-12-11T11:16:04;77.40;;;39.05;;
57389;SDS011;43217;52.694;6.214;2022-12-11T11:18:32;75.03;;;33.95;;
57389;SDS011;43217;52.694;6.214;2022-12-11T11:20:58;72.53;;;35.35;;
57389;SDS011;43217;52.694;6.214;2022-12-11T11:23:25;72.43;;;35.38;;
57389;SDS011;43217;52.694;6.214;2022-12-11T11:25:53;69.83;;;34.20;;
57389;SDS011;43217;52.694;6.214;2022-12-11T11:28:24;70.88;;;34.00;;
57389;SDS011;43217;52.694;6.214;2022-12-11T11:31:06;67.28;;;31.88;;
57389;SDS011;43217;52.694;6.214;2022-12-11T11:33:44;62.60;;;33.67;;
57389;SDS011;43217;52.694;6.214;2022-12-11T11:36:22;66.80;;;34.10;;
57389;SDS011;43217;52.694;6.214;2022-12-11T11:41:29;54.08;;;31.27;;
57389;SDS011;43217;52.694;6.214;2022-12-11T11:44:18;56.17;;;31.38;;
57389;SDS011;43217;52.694;6.214;2022-12-11T11:46:57;53.65;;;31.58;;
57389;SDS011;43217;52.694;6.214;2022-12-11T11:49:49;49.15;;;29.33;;
57389;SDS011;43217;52.694;6.214;2022-12-11T11:52:28;53.15;;;32.35;;
57389;SDS011;43217;52.694;6.214;2022-12-11T11:57:41;46.95;;;27.50;;
57389;SDS011;43217;52.694;6.214;2022-12-11T12:02:48;51.58;;;32.88;;
57389;SDS011;43217;52.694;6.214;2022-12-11T12:05:22;46.70;;;29.85;;
57389;SDS011;43217;52.694;6.214;2022-12-11T12:19:24;46.55;;;30.48;;
57389;SDS011;43217;52.694;6.214;2022-12-11T12:22:32;48.95;;;30.75;;
57389;SDS011;43217;52.694;6.214;2022-12-11T12:25:15;55.13;;;35.35;;
57389;SDS011;43217;52.694;6.214;2022-12-11T12:28:02;46.17;;;30.38;;
57389;SDS011;43217;52.694;6.214;2022-12-11T12:30:44;47.50;;;31.13;;
57389;SDS011;43217;52.694;6.214;2022-12-11T12:36:03;43.90;;;27.63;;
57389;SDS011;43217;52.694;6.214;2022-12-11T12:41:31;41.63;;;27.05;;
57389;SDS011;43217;52.694;6.214;2022-12-11T12:44:06;41.33;;;27.30;;
57389;SDS011;43217;52.694;6.214;2022-12-11T12:49:16;41.53;;;28.45;;
57389;SDS011;43217;52.694;6.214;2022-12-11T12:51:51;41.85;;;26.95;;
57389;SDS011;43217;52.694;6.214;2022-12-11T12:54:17;41.05;;;28.63;;
57389;SDS011;43217;52.694;6.214;2022-12-11T12:56:45;37.38;;;25.95;;
57389;SDS011;43217;52.694;6.214;2022-12-11T12:59:21;40.28;;;25.33;;
57389;SDS011;43217;52.694;6.214;2022-12-11T13:01:49;34.45;;;24.23;;
57389;SDS011;43217;52.694;6.214;2022-12-11T13:04:34;37.30;;;24.83;;
57389;SDS011;43217;52.694;6.214;2022-12-11T13:07:17;33.83;;;22.42;;
57389;SDS011;43217;52.694;6.214;2022-12-11T13:12:42;33.15;;;22.77;;
57389;SDS011;43217;52.694;6.214;2022-12-11T13:17:52;34.00;;;22.20;;
57389;SDS011;43217;52.694;6.214;2022-12-11T13:20:18;29.75;;;21.48;;
57389;SDS011;43217;52.694;6.214;2022-12-11T13:23:07;34.78;;;24.48;;
57389;SDS011;43217;52.694;6.214;2022-12-11T13:25:46;33.65;;;23.13;;
57389;SDS011;43217;52.694;6.214;2022-12-11T13:28:56;31.70;;;21.83;;
57389;SDS011;43217;52.694;6.214;2022-12-11T13:31:05;38.35;;;28.00;;
57389;SDS011;43217;52.694;6.214;2022-12-11T13:33:53;33.03;;;25.05;;
57389;SDS011;43217;52.694;6.214;2022-12-11T13:36:31;33.88;;;25.20;;
57389;SDS011;43217;52.694;6.214;2022-12-11T13:39:01;35.95;;;27.08;;
57389;SDS011;43217;52.694;6.214;2022-12-11T13:41:39;40.30;;;29.35;;
57389;SDS011;43217;52.694;6.214;2022-12-11T13:44:12;39.53;;;32.05;;
57389;SDS011;43217;52.694;6.214;2022-12-11T13:46:44;33.58;;;22.10;;
57389;SDS011;43217;52.694;6.214;2022-12-11T13:49:17;37.58;;;28.45;;
57389;SDS011;43217;52.694;6.214;2022-12-11T13:51:56;39.38;;;27.48;;
57389;SDS011;43217;52.694;6.214;2022-12-11T13:54:24;36.78;;;26.02;;
57389;SDS011;43217;52.694;6.214;2022-12-11T13:56:58;40.20;;;27.70;;
57389;SDS011;43217;52.694;6.214;2022-12-11T14:01:57;37.78;;;28.17;;
57389;SDS011;43217;52.694;6.214;2022-12-11T14:04:26;37.38;;;26.45;;
57389;SDS011;43217;52.694;6.214;2022-12-11T14:06:54;35.05;;;22.73;;
57389;SDS011;43217;52.694;6.214;2022-12-11T14:09:22;39.40;;;25.90;;
57389;SDS011;43217;52.694;6.214;2022-12-11T14:11:50;35.97;;;24.98;;
57389;SDS011;43217;52.694;6.214;2022-12-11T14:16:46;34.13;;;23.92;;
57389;SDS011;43217;52.694;6.214;2022-12-11T14:19:13;33.75;;;23.33;;
57389;SDS011;43217;52.694;6.214;2022-12-11T14:21:41;32.08;;;21.45;;
57389;SDS011;43217;52.694;6.214;2022-12-11T14:24:11;30.65;;;21.63;;
57389;SDS011;43217;52.694;6.214;2022-12-11T14:26:38;32.17;;;21.35;;
57389;SDS011;43217;52.694;6.214;2022-12-11T14:29:04;31.45;;;21.38;;
57389;SDS011;43217;52.694;6.214;2022-12-11T14:34:03;30.35;;;20.92;;
57389;SDS011;43217;52.694;6.214;2022-12-11T14:36:35;31.48;;;20.92;;
57389;SDS011;43217;52.694;6.214;2022-12-11T14:39:02;31.08;;;22.27;;
57389;SDS011;43217;52.694;6.214;2022-12-11T14:41:39;33.15;;;22.38;;
57389;SDS011;43217;52.694;6.214;2022-12-11T14:44:16;35.38;;;23.40;;
57389;SDS011;43217;52.694;6.214;2022-12-11T14:46:46;29.33;;;21.13;;
57389;SDS011;43217;52.694;6.214;2022-12-11T14:49:23;29.23;;;20.13;;
57389;SDS011;43217;52.694;6.214;2022-12-11T14:54:32;33.15;;;21.38;;
57389;SDS011;43217;52.694;6.214;2022-12-11T14:57:02;29.88;;;20.90;;
57389;SDS011;43217;52.694;6.214;2022-12-11T14:59:30;32.30;;;21.05;;
57389;SDS011;43217;52.694;6.214;2022-12-11T15:05:21;32.97;;;22.20;;
57389;SDS011;43217;52.694;6.214;2022-12-11T15:08:00;32.80;;;22.63;;
57389;SDS011;43217;52.694;6.214;2022-12-11T15:10:33;32.67;;;21.77;;
57389;SDS011;43217;52.694;6.214;2022-12-11T15:13:07;36.97;;;25.63;;
57389;SDS011;43217;52.694;6.214;2022-12-11T15:15:51;36.47;;;26.13;;
57389;SDS011;43217;52.694;6.214;2022-12-11T15:18:26;31.80;;;22.38;;
57389;SDS011;43217;52.694;6.214;2022-12-11T15:21:06;35.60;;;25.27;;
57389;SDS011;43217;52.694;6.214;2022-12-11T15:26:09;30.75;;;22.75;;
57389;SDS011;43217;52.694;6.214;2022-12-11T15:28:36;35.60;;;24.08;;
57389;SDS011;43217;52.694;6.214;2022-12-11T15:31:06;33.50;;;24.67;;
57389;SDS011;43217;52.694;6.214;2022-12-11T15:33:52;39.42;;;27.40;;
57389;SDS011;43217;52.694;6.214;2022-12-11T15:36:39;39.28;;;28.33;;
57389;SDS011;43217;52.694;6.214;2022-12-11T15:39:04;41.22;;;29.75;;
57389;SDS011;43217;52.694;6.214;2022-12-11T15:41:32;36.28;;;27.83;;
57389;SDS011;43217;52.694;6.214;2022-12-11T15:43:59;38.42;;;27.58;;
57389;SDS011;43217;52.694;6.214;2022-12-11T15:46:27;35.22;;;27.13;;
57389;SDS011;43217;52.694;6.214;2022-12-11T15:48:54;36.30;;;25.50;;
57389;SDS011;43217;52.694;6.214;2022-12-11T15:51:20;31.27;;;22.65;;
57389;SDS011;43217;52.694;6.214;2022-12-11T15:53:47;34.17;;;24.23;;
57389;SDS011;43217;52.694;6.214;2022-12-11T15:56:16;34.22;;;24.83;;
57389;SDS011;43217;52.694;6.214;2022-12-11T15:58:43;35.78;;;25.48;;
57389;SDS011;43217;52.694;6.214;2022-12-11T16:01:10;32.00;;;24.17;;
57389;SDS011;43217;52.694;6.214;2022-12-11T16:03:36;97.85;;;63.22;;